New Bremen, Ohio
Current Conditions -  °F | °C
As of 2:34 PM on Tuesday 21 Oct 2014 (Local Time) from KAXV Reporting Station
Overcast Overcast  
Wind Chill: 50°   Ceiling: 2200
Heat Index: 50°   Visibility: 10mi
Dew Point: 45°   Wind: 12mph
Humidity: 82%   Direction: 330°NNW
Pressure: 30.05"   Gusts: 17mph
Location:  40.44°N, 84.38°W
Report Text: KAXV 211834Z AUTO 33010G15KT 10SM BKN022 BKN026 OVC034 10/07 A3005 RMK AO2
Loading
Personal Weather Stations






























Interactive Weather Map
Tropical Storm Tracking
New forecast layout! Learn more

10-Day Weather Forecast

Advertisements
Track Severe Weather on mobile